North Bend, WA

6:43 AM PST on March 05, 2015 (GMT -0800)
North Bend | Change Station
CLOSE
Current Station
Personal Weather Station
Location: North Bend, WA
Elevation: 518 ft
Nearby Weather Stations

Elev 518 ft 47.49 °N, 121.80 °W | Updated 12 seconds ago

Partly Cloudy
Partly Cloudy
33.1 °F
Feels Like 33 °F
N
0.0
Wind Variable Wind from North
Gusts 0.0 mph

Today
High -- | Low -- °F
--% Chance of Precip.
Yesterday
High -- | Low -- °F
Precip. -- in
6:40 AM 5:57 PM
Full, 100% visible
Pressure 30.35 in
Visibility 10.0 miles
Clouds Clear
Windchill 33 °F
Dew Point 27 °F
Humidity 77%
Rainfall in
Snow Depth Not available.
UV 0 out of 12
Pollen 7.40 out of 12
Air Quality Not available.
Flu Activity Not available.
METAR KRNT 051353Z 12003KT 10SM CLR 02/M01 A3033 RMK AO2 SLP277 T00171006 $

More Conditions Fewer Conditions

Pressure 30.35 in
Visibility 10.0 miles
Clouds Clear
Windchill 33 °F
Dew Point 27 °F
Humidity 77%
Rainfall in
Snow Depth Not available.
UV 0 out of 12
Pollen 7.40 out of 12
Air Quality Not available.
Flu Activity Not available.
METAR KRNT 051353Z 12003KT 10SM CLR 02/M01 A3033 RMK AO2 SLP277 T00171006 $

More Conditions Fewer Conditions

10-Day Weather Forecast

Almanac

Astronomy

Mar. 05, 2015 Rise Set
Actual Time
Civil Twilight
Nautical Twilight
Astronomical Twilight
Moon
Length of Visible Light
Length of Day
Tomorrow will be .
, % of the Moon is Illuminated

Today's Extremes

State Highs State Lows

Community

WunderPhotos

Upload Photos

1,802,789 photos uploaded!

WunderBlogs® & News

Nearby

Air Quality

  Air Quality AQ Index Pollutant
Not available.

Snow Depth

Station Depth Elevation

Earthquake Activity

City Distance Mag. Time & Date
Minimum magnitude displayed is 2.5.

Coastal Water Temperatures

Place Temperature

Nearby Weather Stations